Time;durP1;ratioP1;P1;durP2;ratioP2;P2;SDS_P1;SDS_P2;PMS_P1;PMS_P2;Temp;Humidity;BMP_temperature;BMP_pressure;BME280_temperature;BME280_humidity;BME280_pressure;Samples;Min_cycle;Max_cycle;Signal;HPM_P1;HPM_P2
2022/01/07 00:00:40;;;;;;;3.67;2.00;;;17.40;62.80;;;;;;10457051;28;20204;-67
2022/01/07 00:06:02;;;;;;;3.03;1.80;;;17.40;62.70;;;;;;10453125;28;20221;-69
2022/01/07 00:11:26;;;;;;;3.23;2.03;;;17.40;62.80;;;;;;10438421;28;20216;-68
2022/01/07 00:16:49;;;;;;;3.07;1.93;;;17.40;62.80;;;;;;10456188;28;20711;-68
2022/01/07 00:22:11;;;;;;;3.97;2.20;;;17.40;62.70;;;;;;10456007;28;20196;-68
2022/01/07 00:27:35;;;;;;;4.30;1.83;;;17.40;62.80;;;;;;10456775;28;20217;-69
2022/01/07 00:32:57;;;;;;;4.80;2.30;;;17.40;62.70;;;;;;10456129;28;20198;-68
2022/01/07 00:38:20;;;;;;;3.93;1.70;;;17.40;62.70;;;;;;10469595;22;20236;-66
2022/01/07 00:43:43;;;;;;;3.50;1.90;;;17.40;62.70;;;;;;10452338;28;20208;-65
2022/01/07 00:49:05;;;;;;;3.37;2.00;;;17.30;62.60;;;;;;10441830;28;20307;-66
2022/01/07 00:54:28;;;;;;;3.07;1.80;;;17.30;62.60;;;;;;10449080;28;20665;-64
2022/01/07 00:59:52;;;;;;;3.33;1.83;;;17.30;62.50;;;;;;10439242;28;20224;-63
2022/01/07 01:05:15;;;;;;;4.50;2.13;;;17.30;62.60;;;;;;10443758;28;20558;-65
2022/01/07 01:10:37;;;;;;;3.70;1.90;;;17.30;62.60;;;;;;10413379;28;20218;-64
2022/01/07 01:16:00;;;;;;;3.30;1.80;;;17.30;62.60;;;;;;10413032;28;20221;-63
2022/01/07 01:21:22;;;;;;;3.97;1.97;;;17.30;62.60;;;;;;10420295;28;20626;-64
2022/01/07 01:26:45;;;;;;;4.10;1.80;;;17.30;62.60;;;;;;10435936;28;20217;-64
2022/01/07 01:32:08;;;;;;;2.63;1.47;;;17.30;62.60;;;;;;10426923;28;20217;-65
2022/01/07 01:37:31;;;;;;;2.80;1.70;;;17.30;62.60;;;;;;10423249;28;20226;-65
2022/01/07 01:42:53;;;;;;;3.77;1.87;;;17.30;62.60;;;;;;10412793;28;20580;-65
2022/01/07 01:48:17;;;;;;;2.60;1.53;;;17.30;62.50;;;;;;10417355;28;20217;-63
2022/01/07 01:53:39;;;;;;;5.23;2.00;;;17.30;62.50;;;;;;10410997;28;20224;-65
2022/01/07 01:59:02;;;;;;;3.90;1.70;;;17.30;62.50;;;;;;10411627;28;20214;-65
2022/01/07 02:04:25;;;;;;;3.67;1.87;;;17.30;62.50;;;;;;10411220;28;20194;-65
2022/01/07 02:09:47;;;;;;;3.10;1.33;;;17.30;62.50;;;;;;10411572;28;20228;-66
2022/01/07 02:15:11;;;;;;;3.87;1.53;;;17.30;62.50;;;;;;10411357;28;20197;-64
2022/01/07 02:20:35;;;;;;;3.30;1.80;;;17.30;62.50;;;;;;10410302;28;20611;-64
2022/01/07 02:25:58;;;;;;;3.83;1.67;;;17.30;62.50;;;;;;10403189;28;20217;-65
2022/01/07 02:31:20;;;;;;;3.27;1.33;;;17.30;62.50;;;;;;10446283;28;20228;-65
2022/01/07 02:36:44;;;;;;;3.30;1.50;;;17.30;62.50;;;;;;10413932;28;20229;-66
2022/01/07 02:42:06;;;;;;;3.87;1.60;;;17.30;62.50;;;;;;10410329;28;20205;-65
2022/01/07 02:47:35;;;;;;;2.37;1.60;;;17.30;62.50;;;;;;10426219;28;20221;-66
2022/01/07 02:52:58;;;;;;;2.53;1.30;;;17.30;62.50;;;;;;10434499;28;20249;-66
2022/01/07 02:58:20;;;;;;;2.63;1.40;;;17.30;62.40;;;;;;10410128;28;20241;-65
2022/01/07 03:03:43;;;;;;;4.67;1.77;;;17.30;62.50;;;;;;10410105;28;20202;-67
2022/01/07 03:09:07;;;;;;;2.00;1.33;;;17.30;62.40;;;;;;10390354;28;20218;-67
2022/01/07 03:14:29;;;;;;;2.33;1.33;;;17.30;62.30;;;;;;10410102;28;20197;-67
2022/01/07 03:19:51;;;;;;;2.90;1.70;;;17.30;62.50;;;;;;10409626;28;20589;-67
2022/01/07 03:25:16;;;;;;;3.60;1.50;;;17.30;62.40;;;;;;10413779;28;20228;-67
2022/01/07 03:30:38;;;;;;;4.37;1.57;;;17.30;62.40;;;;;;10436722;28;20216;-67
2022/01/07 03:36:00;;;;;;;3.70;1.57;;;17.30;62.40;;;;;;10410815;28;20233;-67
2022/01/07 03:41:24;;;;;;;3.20;1.60;;;17.30;62.40;;;;;;10421673;28;20208;-64
2022/01/07 03:46:46;;;;;;;3.80;1.40;;;17.30;62.40;;;;;;10450235;28;20217;-66
2022/01/07 03:52:08;;;;;;;1.87;1.47;;;17.30;62.40;;;;;;10428162;28;20213;-66
2022/01/07 03:57:32;;;;;;;2.77;1.40;;;17.30;62.40;;;;;;10415778;28;20227;-67
2022/01/07 04:02:54;;;;;;;2.13;1.10;;;17.20;62.30;;;;;;10415568;28;20194;-66
2022/01/07 04:08:16;;;;;;;2.60;1.17;;;17.30;62.40;;;;;;10415595;28;20221;-66
2022/01/07 04:13:40;;;;;;;5.23;1.50;;;17.30;62.40;;;;;;10415940;28;20204;-65
2022/01/07 04:19:02;;;;;;;2.43;1.07;;;17.30;62.40;;;;;;10415629;28;20601;-65
2022/01/07 04:24:24;;;;;;;2.23;1.20;;;17.30;62.30;;;;;;10401189;28;20207;-65
2022/01/07 04:29:48;;;;;;;2.50;1.00;;;17.30;62.30;;;;;;10393660;28;20222;-65
2022/01/07 04:35:12;;;;;;;2.67;1.40;;;17.30;62.30;;;;;;10398632;28;20205;-66
2022/01/07 04:40:35;;;;;;;3.23;1.50;;;17.30;62.30;;;;;;10449615;28;20193;-66
2022/01/07 04:45:58;;;;;;;2.10;1.30;;;17.30;62.30;;;;;;10420289;28;20220;-65
2022/01/07 04:51:21;;;;;;;3.17;1.30;;;17.30;62.30;;;;;;10413694;28;20218;-65
2022/01/07 04:56:43;;;;;;;2.30;1.13;;;17.30;62.20;;;;;;10414984;28;20217;-65
2022/01/07 05:02:07;;;;;;;1.80;1.03;;;17.30;62.10;;;;;;10391112;28;20621;-66
2022/01/07 05:07:29;;;;;;;2.47;1.23;;;17.30;62.20;;;;;;10389821;28;20267;-65
2022/01/07 05:12:52;;;;;;;2.40;1.20;;;17.30;62.20;;;;;;10413384;28;20593;-65
2022/01/07 05:18:15;;;;;;;2.73;1.10;;;17.30;62.20;;;;;;10411832;28;20221;-65
2022/01/07 05:23:37;;;;;;;2.87;1.43;;;17.30;62.20;;;;;;10400018;28;20677;-66
2022/01/07 05:28:59;;;;;;;2.23;0.83;;;17.30;62.30;;;;;;10426470;28;20225;-66
2022/01/07 05:34:23;;;;;;;1.60;1.20;;;17.30;62.30;;;;;;10412954;28;20198;-66
2022/01/07 05:39:45;;;;;;;3.03;1.13;;;17.30;62.20;;;;;;10418247;28;20217;-65
2022/01/07 05:45:07;;;;;;;3.83;1.53;;;17.30;62.20;;;;;;10449515;28;20574;-65
2022/01/07 05:50:31;;;;;;;2.33;1.00;;;17.30;62.30;;;;;;10395327;28;20210;-66
2022/01/07 05:55:53;;;;;;;2.57;1.33;;;17.30;62.20;;;;;;10370540;28;20319;-65
2022/01/07 06:01:15;;;;;;;2.47;1.20;;;17.30;62.30;;;;;;10371301;28;20199;-66
2022/01/07 06:06:38;;;;;;;1.07;0.70;;;17.40;62.30;;;;;;10370290;28;20705;-66
2022/01/07 06:12:01;;;;;;;1.93;1.10;;;17.30;62.30;;;;;;10402097;28;20225;-67
2022/01/07 06:17:23;;;;;;;2.53;1.07;;;17.30;62.40;;;;;;10416582;28;20252;-66
2022/01/07 06:22:47;;;;;;;3.13;1.37;;;17.30;62.30;;;;;;10410588;28;20190;-65
2022/01/07 06:28:09;;;;;;;3.53;1.30;;;17.40;62.30;;;;;;10420875;28;20724;-67
2022/01/07 06:33:31;;;;;;;3.00;1.33;;;17.30;62.20;;;;;;10410767;28;20289;-65
2022/01/07 06:38:55;;;;;;;2.73;1.13;;;17.30;62.30;;;;;;10441968;22;20229;-69
2022/01/07 06:44:17;;;;;;;2.63;0.93;;;17.30;62.30;;;;;;10449371;28;20205;-69
2022/01/07 06:49:39;;;;;;;2.37;1.10;;;17.30;62.40;;;;;;10410495;28;20222;-69
2022/01/07 06:55:03;;;;;;;2.17;1.10;;;17.30;62.30;;;;;;10431478;28;20196;-69
2022/01/07 07:00:25;;;;;;;1.67;1.00;;;17.30;62.20;;;;;;10450597;28;20688;-69
2022/01/07 07:05:47;;;;;;;1.33;0.80;;;17.30;62.30;;;;;;10451534;28;20213;-68
2022/01/07 07:11:11;;;;;;;1.83;1.03;;;17.30;62.40;;;;;;10450884;28;20217;-68
2022/01/07 07:16:33;;;;;;;1.93;1.10;;;17.40;62.40;;;;;;10451378;28;20296;-69
2022/01/07 07:21:55;;;;;;;2.53;1.17;;;17.30;62.40;;;;;;10443930;28;20201;-69
2022/01/07 07:27:19;;;;;;;1.73;1.03;;;17.30;62.40;;;;;;10447403;28;20223;-68
2022/01/07 07:32:41;;;;;;;3.20;1.03;;;17.30;62.30;;;;;;10441457;28;20213;-67
2022/01/07 07:38:03;;;;;;;1.77;1.10;;;17.30;62.30;;;;;;10462146;28;20256;-67
2022/01/07 07:43:27;;;;;;;1.53;0.97;;;17.30;62.40;;;;;;10454614;28;20674;-67
2022/01/07 07:48:51;;;;;;;1.63;0.77;;;17.40;62.50;;;;;;10444032;28;20212;-69
2022/01/07 07:54:13;;;;;;;0.97;0.67;;;17.30;62.50;;;;;;10453309;28;20197;-68
2022/01/07 07:59:36;;;;;;;3.10;1.13;;;17.40;63.10;;;;;;10455128;28;20220;-69
2022/01/07 08:04:58;;;;;;;2.00;0.90;;;17.30;62.60;;;;;;10452494;28;20200;-66
2022/01/07 08:10:24;;;;;;;2.07;1.07;;;17.30;62.60;;;;;;10455669;28;20220;-68
2022/01/07 08:16:00;;;;;;;1.53;0.97;;;17.30;62.70;;;;;;10453025;28;20612;-69
2022/01/07 08:21:25;;;;;;;1.63;0.97;;;17.30;62.70;;;;;;10454770;28;20208;-69
2022/01/07 08:26:47;;;;;;;1.50;0.93;;;17.30;62.70;;;;;;10451081;28;20606;-68
2022/01/07 08:37:51;;;;;;;1.57;0.80;;;17.30;62.80;;;;;;10451713;28;20248;-68
2022/01/07 08:43:13;;;;;;;2.13;1.00;;;17.30;62.90;;;;;;10446680;28;20197;-68
2022/01/07 08:48:38;;;;;;;1.30;0.80;;;17.30;62.90;;;;;;10448894;28;20213;-68
2022/01/07 08:54:00;;;;;;;1.67;0.90;;;17.30;62.90;;;;;;10446781;28;20595;-69
2022/01/07 08:59:22;;;;;;;1.67;0.80;;;17.30;62.90;;;;;;10445466;28;20599;-69
2022/01/07 09:04:45;;;;;;;3.13;0.83;;;17.30;62.90;;;;;;10447912;28;20300;-69
2022/01/07 09:10:08;;;;;;;2.93;1.13;;;17.30;63.00;;;;;;10451388;28;20232;-69
2022/01/07 09:15:30;;;;;;;2.37;1.20;;;17.30;63.10;;;;;;10442542;28;20208;-68
2022/01/07 09:20:55;;;;;;;1.67;0.90;;;17.30;63.00;;;;;;10450115;28;20197;-68
2022/01/07 09:26:17;;;;;;;2.13;1.00;;;17.30;63.10;;;;;;10452590;28;20782;-70
2022/01/07 09:31:39;;;;;;;2.13;0.90;;;17.40;63.70;;;;;;10445930;28;20224;-70
2022/01/07 09:37:03;;;;;;;2.13;0.90;;;17.40;63.40;;;;;;10451664;28;20216;-70
2022/01/07 09:42:25;;;;;;;1.33;0.83;;;17.40;63.20;;;;;;10446678;28;20328;-69
2022/01/07 09:47:48;;;;;;;1.87;0.90;;;17.40;63.20;;;;;;10445648;28;20230;-70
2022/01/07 09:53:14;;;;;;;2.07;1.10;;;17.40;63.40;;;;;;10448751;28;20229;-68
2022/01/07 09:58:36;;;;;;;2.63;1.10;;;17.30;63.70;;;;;;10450088;28;20220;-67
2022/01/07 10:03:58;;;;;;;1.73;0.97;;;17.30;62.90;;;;;;10448033;28;20205;-69
2022/01/07 10:09:21;;;;;;;1.80;0.80;;;17.30;62.70;;;;;;10447830;28;20213;-70
2022/01/07 10:14:43;;;;;;;2.43;0.90;;;17.30;62.60;;;;;;10443419;28;20204;-68
2022/01/07 10:20:07;;;;;;;2.00;1.00;;;17.30;62.60;;;;;;10445255;28;20217;-68
2022/01/07 10:25:32;;;;;;;3.90;1.27;;;17.30;62.50;;;;;;10435289;28;20204;-67
2022/01/07 10:30:55;;;;;;;2.70;0.87;;;17.30;62.50;;;;;;10447318;28;20227;-68
2022/01/07 10:36:20;;;;;;;1.40;0.83;;;17.30;62.60;;;;;;10444725;28;20249;-68
2022/01/07 10:42:01;;;;;;;1.70;0.90;;;17.40;62.40;;;;;;10448196;28;20204;-69
2022/01/07 10:47:24;;;;;;;1.50;1.17;;;17.30;61.90;;;;;;10445917;28;20209;-68
2022/01/07 10:52:47;;;;;;;3.07;0.70;;;17.30;62.30;;;;;;10431365;28;20228;-69
2022/01/07 10:58:11;;;;;;;3.20;0.93;;;17.30;62.60;;;;;;10433528;28;20248;-69
2022/01/07 11:03:33;;;;;;;1.07;0.70;;;17.40;63.90;;;;;;10437336;28;20446;-69
2022/01/07 11:08:57;;;;;;;1.00;0.80;;;17.60;62.80;;;;;;10461098;28;20300;-70
2022/01/07 11:14:25;;;;;;;0.70;0.70;;;17.50;62.80;;;;;;10443205;28;20228;-69
2022/01/07 11:19:53;;;;;;;1.70;0.80;;;17.50;62.90;;;;;;10441260;28;20212;-69
2022/01/07 11:25:15;;;;;;;1.90;0.77;;;17.50;62.90;;;;;;10442239;28;20580;-70
2022/01/07 11:30:39;;;;;;;0.60;0.60;;;17.50;62.80;;;;;;10450076;28;20283;-70
2022/01/07 11:36:01;;;;;;;1.57;0.67;;;17.50;62.70;;;;;;10449185;28;20237;-70
2022/01/07 11:41:44;;;;;;;1.33;0.60;;;17.50;62.80;;;;;;10453636;28;20193;-70
2022/01/07 11:47:24;;;;;;;2.23;0.90;;;17.50;62.90;;;;;;10445656;28;20307;-69
2022/01/07 11:52:56;;;;;;;1.83;0.80;;;17.50;63.00;;;;;;10448524;28;20274;-69
2022/01/07 11:58:19;;;;;;;2.40;1.20;;;17.50;62.70;;;;;;10453295;28;20296;-69
2022/01/07 12:03:43;;;;;;;2.30;0.90;;;17.50;62.60;;;;;;10453669;28;20201;-69
2022/01/07 12:09:11;;;;;;;2.63;0.80;;;17.50;62.60;;;;;;10454016;28;20307;-69
2022/01/07 12:14:37;;;;;;;2.70;1.00;;;17.60;62.70;;;;;;10439997;28;20225;-69
2022/01/07 12:20:32;;;;;;;0.97;0.73;;;17.60;62.90;;;;;;10448980;28;20225;-68
2022/01/07 12:25:57;;;;;;;1.77;1.00;;;17.60;63.20;;;;;;10451621;28;20229;-69
2022/01/07 12:31:19;;;;;;;1.90;0.97;;;17.50;63.50;;;;;;10453025;28;20219;-68
2022/01/07 12:36:41;;;;;;;1.07;0.70;;;17.50;63.50;;;;;;10455439;28;20570;-69
2022/01/07 12:42:06;;;;;;;1.30;1.00;;;17.50;63.50;;;;;;10450911;28;20193;-68
2022/01/07 12:47:30;;;;;;;1.93;0.97;;;17.50;63.50;;;;;;10446707;28;20221;-68
2022/01/07 12:52:52;;;;;;;1.57;0.93;;;17.50;63.50;;;;;;10461268;23;20311;-66
2022/01/07 12:58:28;;;;;;;2.37;1.20;;;17.50;63.40;;;;;;10452529;28;20204;-66
2022/01/07 13:04:04;;;;;;;1.90;1.10;;;17.50;63.30;;;;;;10410855;28;20197;-66
2022/01/07 13:09:29;;;;;;;2.60;0.80;;;17.50;63.20;;;;;;10418452;28;20232;-67
2022/01/07 13:14:53;;;;;;;2.87;1.13;;;17.50;63.30;;;;;;10413803;28;20217;-67
2022/01/07 13:20:28;;;;;;;1.97;1.10;;;17.50;63.30;;;;;;10409810;28;20349;-64
2022/01/07 13:25:51;;;;;;;1.80;1.07;;;17.60;62.60;;;;;;10413256;28;20239;-66
2022/01/07 13:31:17;;;;;;;3.03;1.30;;;17.50;62.70;;;;;;10404910;28;20217;-66
2022/01/07 13:36:44;;;;;;;2.53;1.50;;;17.50;62.70;;;;;;10410122;28;20672;-66
2022/01/07 13:42:07;;;;;;;1.47;1.00;;;17.50;62.60;;;;;;10419061;28;20704;-65
2022/01/07 13:47:33;;;;;;;3.73;1.30;;;17.50;62.70;;;;;;10413155;28;20205;-67
2022/01/07 13:52:56;;;;;;;1.93;1.30;;;17.40;62.70;;;;;;10421085;28;20217;-64
2022/01/07 13:58:20;;;;;;;2.97;1.40;;;17.40;62.60;;;;;;10416602;28;20200;-66
2022/01/07 14:03:51;;;;;;;1.80;1.30;;;17.40;63.20;;;;;;10417082;28;20224;-69
2022/01/07 14:09:15;;;;;;;3.07;1.40;;;17.50;62.60;;;;;;10413463;28;20716;-69
2022/01/07 14:14:39;;;;;;;3.13;1.40;;;17.50;63.40;;;;;;10413835;28;20226;-65
2022/01/07 14:20:05;;;;;;;2.60;1.40;;;17.50;63.50;;;;;;10392266;28;20602;-66
2022/01/07 14:25:28;;;;;;;3.33;1.50;;;17.50;62.70;;;;;;10412085;28;20680;-65
2022/01/07 14:30:50;;;;;;;1.77;1.40;;;17.50;62.70;;;;;;10419000;28;20218;-65
2022/01/07 14:36:14;;;;;;;2.13;1.40;;;17.50;62.70;;;;;;10421423;28;20205;-64
2022/01/07 14:41:36;;;;;;;2.57;1.47;;;17.40;62.80;;;;;;10425916;28;20230;-64
2022/01/07 14:46:58;;;;;;;2.53;1.30;;;17.40;63.00;;;;;;10417552;28;20198;-65
2022/01/07 14:52:24;;;;;;;2.80;1.30;;;17.40;63.10;;;;;;10423189;28;20232;-64
2022/01/07 14:57:46;;;;;;;1.77;1.20;;;17.40;63.20;;;;;;10410344;28;20669;-64
2022/01/07 15:03:08;;;;;;;3.07;1.80;;;17.40;63.20;;;;;;10414055;28;20252;-66
2022/01/07 15:08:32;;;;;;;3.17;1.40;;;17.40;63.30;;;;;;10406779;28;20206;-66
2022/01/07 15:13:54;;;;;;;1.73;1.13;;;17.40;63.30;;;;;;10426495;28;20600;-66
2022/01/07 15:19:18;;;;;;;1.80;1.40;;;17.40;63.40;;;;;;10425885;28;20217;-64
2022/01/07 15:24:41;;;;;;;1.30;1.10;;;17.40;63.40;;;;;;10407867;28;20186;-65
2022/01/07 15:30:04;;;;;;;3.87;1.27;;;17.40;63.40;;;;;;10416734;28;20681;-65
2022/01/07 15:35:27;;;;;;;1.70;1.27;;;17.40;63.50;;;;;;10426262;28;20198;-65
2022/01/07 15:40:50;;;;;;;1.73;1.17;;;17.40;63.50;;;;;;10409337;28;20222;-65
2022/01/07 15:46:12;;;;;;;2.47;1.30;;;17.40;63.50;;;;;;10425389;28;20250;-65
2022/01/07 15:51:35;;;;;;;1.73;1.27;;;17.40;63.60;;;;;;10412191;28;20221;-69
2022/01/07 15:56:58;;;;;;;2.07;1.30;;;17.40;64.00;;;;;;10417117;28;20205;-69
2022/01/07 16:02:20;;;;;;;1.43;0.90;;;17.50;64.20;;;;;;10425934;28;20224;-69
2022/01/07 16:07:42;;;;;;;1.57;1.20;;;17.50;64.10;;;;;;10414188;28;20194;-68
2022/01/07 16:13:06;;;;;;;1.80;1.10;;;17.50;63.80;;;;;;10401495;28;20229;-64
2022/01/07 16:18:28;;;;;;;3.50;1.50;;;17.50;63.40;;;;;;10422227;28;20207;-65
2022/01/07 16:23:51;;;;;;;2.03;1.27;;;17.50;62.80;;;;;;10428231;28;20198;-67
2022/01/07 16:29:14;;;;;;;1.90;1.27;;;17.40;62.90;;;;;;10414313;28;20222;-66
2022/01/07 16:34:36;;;;;;;2.30;1.20;;;17.40;63.00;;;;;;10403198;28;20580;-66
2022/01/07 16:39:58;;;;;;;1.87;1.10;;;17.40;63.10;;;;;;10416686;28;20250;-64
2022/01/07 16:45:22;;;;;;;1.80;1.40;;;17.40;63.10;;;;;;10427053;28;20193;-69
2022/01/07 16:50:44;;;;;;;1.73;1.10;;;17.40;63.70;;;;;;10399990;28;20234;-69
2022/01/07 16:56:07;;;;;;;2.00;1.00;;;17.50;64.00;;;;;;10419673;28;20201;-68
2022/01/07 17:01:30;;;;;;;2.13;1.17;;;17.50;64.00;;;;;;10418787;28;20677;-70
2022/01/07 17:06:53;;;;;;;2.70;1.20;;;17.50;64.00;;;;;;10421170;28;20204;-68
2022/01/07 17:12:15;;;;;;;0.97;0.83;;;17.60;64.00;;;;;;10436752;28;20248;-68
2022/01/07 17:17:39;;;;;;;2.43;1.30;;;17.50;63.90;;;;;;10418920;28;20494;-69
2022/01/07 17:23:02;;;;;;;1.67;1.10;;;17.60;63.90;;;;;;10413147;28;20228;-69
2022/01/07 17:28:24;;;;;;;1.90;1.40;;;17.60;63.90;;;;;;10410247;28;20217;-68
2022/01/07 17:33:47;;;;;;;2.00;1.47;;;17.60;63.80;;;;;;10408404;28;20222;-68
2022/01/07 17:39:10;;;;;;;2.37;1.30;;;17.60;63.80;;;;;;10425449;28;20214;-68
2022/01/07 17:44:32;;;;;;;3.08;1.45;;;17.60;63.90;;;;;;10407848;28;20423;-68
2022/01/07 17:49:55;;;;;;;1.80;1.20;;;18.30;61.20;;;;;;10420282;28;20227;-66
2022/01/07 17:55:18;;;;;;;3.40;1.27;;;17.80;62.70;;;;;;10410237;28;20704;-68
2022/01/07 18:00:40;;;;;;;1.47;1.37;;;17.70;63.20;;;;;;10409830;28;20229;-69
2022/01/07 18:06:03;;;;;;;3.07;1.20;;;17.60;63.30;;;;;;10411776;28;20200;-68
2022/01/07 18:11:25;;;;;;;1.50;1.17;;;17.60;63.30;;;;;;10407224;28;20225;-68
2022/01/07 18:16:47;;;;;;;1.47;1.10;;;17.60;63.40;;;;;;10413484;28;20205;-69
2022/01/07 18:22:13;;;;;;;2.67;1.30;;;17.60;63.40;;;;;;10413033;28;20608;-69
2022/01/07 18:27:35;;;;;;;1.67;1.57;;;17.60;63.40;;;;;;10396164;28;20201;-67
2022/01/07 18:32:57;;;;;;;2.27;1.10;;;17.60;63.40;;;;;;10405367;28;20725;-68
2022/01/07 18:38:21;;;;;;;2.40;1.30;;;17.60;63.40;;;;;;10411162;28;20200;-68
2022/01/07 18:43:43;;;;;;;2.67;1.30;;;17.60;63.40;;;;;;10400190;28;20221;-68
2022/01/07 18:49:08;;;;;;;1.13;1.10;;;17.50;63.30;;;;;;10403021;28;20218;-68
2022/01/07 18:54:32;;;;;;;2.60;1.30;;;17.60;63.40;;;;;;10402804;28;20534;-68
2022/01/07 18:59:54;;;;;;;1.70;1.47;;;17.50;63.30;;;;;;10401750;28;20222;-68
2022/01/07 19:05:16;;;;;;;1.97;1.30;;;17.60;63.30;;;;;;10402007;28;20194;-68
2022/01/07 19:10:40;;;;;;;1.40;0.90;;;17.50;63.30;;;;;;10397395;28;20226;-68
2022/01/07 19:16:02;;;;;;;2.30;1.20;;;17.60;63.40;;;;;;10390244;28;20241;-68
2022/01/07 19:21:24;;;;;;;2.57;1.50;;;17.50;63.30;;;;;;10363095;28;20218;-68
2022/01/07 19:26:48;;;;;;;2.57;1.60;;;17.50;63.40;;;;;;10406792;28;20205;-68
2022/01/07 19:32:10;;;;;;;4.00;1.33;;;17.60;64.10;;;;;;10389173;28;20259;-68
2022/01/07 19:37:32;;;;;;;2.33;1.20;;;17.60;63.50;;;;;;10383357;28;20212;-68
2022/01/07 19:42:55;;;;;;;2.27;1.30;;;17.60;63.60;;;;;;10409837;28;20206;-68
2022/01/07 19:48:18;;;;;;;1.67;1.07;;;17.60;63.60;;;;;;10380375;28;20202;-68
2022/01/07 19:53:40;;;;;;;2.40;1.10;;;17.50;63.60;;;;;;10436792;28;20528;-68
2022/01/07 19:59:03;;;;;;;2.37;1.30;;;17.50;63.70;;;;;;10408569;22;20229;-66
2022/01/07 20:04:26;;;;;;;3.13;1.50;;;17.50;63.60;;;;;;10451135;28;20193;-66
2022/01/07 20:09:48;;;;;;;2.30;1.37;;;17.60;63.60;;;;;;10468460;28;20227;-69
2022/01/07 20:15:13;;;;;;;2.03;1.40;;;17.50;62.50;;;;;;10460512;28;20595;-68
2022/01/07 20:20:35;;;;;;;3.37;1.50;;;17.50;62.70;;;;;;10467686;28;20569;-69
2022/01/07 20:25:57;;;;;;;1.90;1.40;;;17.50;63.10;;;;;;10455224;28;20684;-68
2022/01/07 20:31:21;;;;;;;1.77;1.37;;;17.50;63.20;;;;;;10456255;28;20221;-68
2022/01/07 20:36:43;;;;;;;2.90;1.50;;;17.50;63.20;;;;;;10452901;28;20189;-69
2022/01/07 20:42:05;;;;;;;2.00;1.30;;;17.40;63.20;;;;;;10452911;28;20688;-68
2022/01/07 20:47:29;;;;;;;2.27;1.20;;;17.40;63.20;;;;;;10455015;28;20189;-69
2022/01/07 20:52:51;;;;;;;2.63;1.10;;;17.40;63.20;;;;;;10452610;28;20228;-68
2022/01/07 20:58:13;;;;;;;2.60;1.43;;;17.40;63.20;;;;;;10453543;28;20588;-68
2022/01/07 21:03:41;;;;;;;3.17;1.37;;;17.40;63.20;;;;;;10454405;28;20660;-68
2022/01/07 21:09:04;;;;;;;1.63;1.20;;;17.40;63.30;;;;;;10450813;28;20220;-68
2022/01/07 21:14:26;;;;;;;1.63;1.23;;;17.40;63.30;;;;;;10452326;28;20695;-68
2022/01/07 21:19:49;;;;;;;1.97;1.27;;;17.40;63.30;;;;;;10449508;28;20232;-69
2022/01/07 21:25:12;;;;;;;2.43;1.10;;;17.40;63.30;;;;;;10447116;28;20588;-68
2022/01/07 21:30:34;;;;;;;1.53;1.17;;;17.40;63.30;;;;;;10442530;28;20550;-68
2022/01/07 21:35:58;;;;;;;1.40;1.00;;;17.40;63.30;;;;;;10439290;28;20213;-68
2022/01/07 21:41:20;;;;;;;2.00;1.10;;;17.40;63.30;;;;;;10448967;28;20213;-69
2022/01/07 21:46:42;;;;;;;1.77;1.13;;;17.40;63.30;;;;;;10453126;28;20193;-68
2022/01/07 21:52:06;;;;;;;2.10;1.40;;;17.40;63.30;;;;;;10451769;28;20220;-68
2022/01/07 21:57:28;;;;;;;1.83;0.90;;;17.40;63.30;;;;;;10435716;28;20197;-68
2022/01/07 22:02:51;;;;;;;1.50;1.03;;;17.30;63.20;;;;;;10439042;28;20193;-69
2022/01/07 22:08:14;;;;;;;2.50;1.00;;;17.30;63.30;;;;;;10450207;28;20290;-69
2022/01/07 22:13:36;;;;;;;1.50;0.83;;;17.30;63.30;;;;;;10448426;28;20216;-69
2022/01/07 22:18:59;;;;;;;2.23;0.97;;;17.30;63.30;;;;;;10435500;28;20216;-68
2022/01/07 22:24:23;;;;;;;1.10;1.00;;;17.30;63.30;;;;;;10450508;28;20189;-68
2022/01/07 22:29:45;;;;;;;1.87;1.20;;;17.30;63.30;;;;;;10441424;28;20478;-68
2022/01/07 22:35:09;;;;;;;1.57;1.00;;;17.30;63.30;;;;;;10450161;28;20779;-68
2022/01/07 22:40:33;;;;;;;1.53;1.03;;;17.30;63.20;;;;;;10451359;28;20684;-68
2022/01/07 22:45:55;;;;;;;1.37;0.90;;;17.30;63.20;;;;;;10450714;28;20669;-69
2022/01/07 22:51:17;;;;;;;1.80;1.00;;;17.30;63.30;;;;;;10449844;28;20565;-68
2022/01/07 22:56:41;;;;;;;0.97;0.70;;;17.30;63.20;;;;;;10447839;28;20623;-68
2022/01/07 23:02:03;;;;;;;1.83;0.97;;;17.30;63.20;;;;;;10414820;28;20226;-68
2022/01/07 23:07:25;;;;;;;0.80;0.80;;;17.30;63.20;;;;;;10447171;28;20208;-68
2022/01/07 23:12:50;;;;;;;1.30;0.87;;;17.30;63.20;;;;;;10445184;28;20715;-68
2022/01/07 23:18:14;;;;;;;2.17;1.17;;;17.30;63.20;;;;;;10449149;28;20232;-67
2022/01/07 23:23:37;;;;;;;2.40;0.90;;;17.30;63.20;;;;;;10445517;28;20554;-69
2022/01/07 23:29:00;;;;;;;1.43;0.90;;;17.30;63.80;;;;;;10440431;28;20228;-68
2022/01/07 23:34:22;;;;;;;1.20;0.70;;;17.30;63.20;;;;;;10444927;28;20692;-69
2022/01/07 23:39:44;;;;;;;1.73;0.90;;;17.30;63.20;;;;;;10422163;28;20218;-68
2022/01/07 23:45:10;;;;;;;1.23;0.80;;;17.30;63.20;;;;;;10451216;28;20189;-69
2022/01/07 23:50:32;;;;;;;1.10;0.83;;;17.30;63.20;;;;;;10446068;28;20209;-69
2022/01/07 23:55:54;;;;;;;0.97;0.90;;;17.30;63.30;;;;;;10447951;28;20688;-68
